Time;durP1;ratioP1;P1;durP2;ratioP2;P2;SDS_P1;SDS_P2;PMS_P1;PMS_P2;Temp;Humidity;BMP_temperature;BMP_pressure;BME280_temperature;BME280_humidity;BME280_pressure;Samples;Min_cycle;Max_cycle;Signal;HPM_P1;HPM_P2
2022/07/27 00:02:14;;;;;;;8.38;3.47;;;;;;;;;;5050440;28;20443;-82
2022/07/27 00:04:39;;;;;;;7.30;2.65;;;;;;;13.56;91.72;68280.16;5055709;28;20111;-83
2022/07/27 00:07:05;;;;;;;10.90;3.38;;;;;;;13.53;91.83;68271.38;5031481;28;20257;-82
2022/07/27 00:09:30;;;;;;;4.45;2.72;;;;;;;;;;5033076;28;20041;-83
2022/07/27 00:11:55;;;;;;;5.50;3.30;;;;;;;13.57;91.30;68280.72;5049497;28;20041;-81
2022/07/27 00:14:21;;;;;;;4.10;2.90;;;;;;;13.54;91.63;68277.88;5059870;28;20056;-84
2022/07/27 00:16:46;;;;;;;7.18;2.65;;;;;;;13.54;91.48;68277.88;5058361;28;20049;-84
2022/07/27 00:19:12;;;;;;;6.78;3.03;;;;;;;13.49;92.52;68275.44;5064985;28;20403;-82
2022/07/27 00:21:38;;;;;;;8.13;3.28;;;;;;;13.50;92.23;68273.91;5057682;28;20045;-78
2022/07/27 00:24:03;;;;;;;7.35;3.13;;;;;;;13.42;91.84;68267.47;5065709;28;20049;-79
2022/07/27 00:26:29;;;;;;;5.65;3.17;;;;;;;13.44;92.00;68269.19;5032864;28;20051;-83
2022/07/27 00:28:54;;;;;;;5.97;3.40;;;;;;;13.41;93.09;68263.09;5052267;28;20044;-82
2022/07/27 00:31:20;;;;;;;8.25;3.20;;;;;;;13.43;92.19;68260.00;5050656;28;20312;-81
2022/07/27 00:33:45;;;;;;;5.00;3.28;;;;;;;13.42;92.78;68264.78;5049704;28;20483;-81
2022/07/27 00:36:10;;;;;;;7.35;3.22;;;;;;;13.38;92.86;68262.34;5051578;28;20059;-80
2022/07/27 00:38:36;;;;;;;6.85;3.45;;;;;;;;;;5048963;28;20048;-81
2022/07/27 00:41:01;;;;;;;7.20;3.88;;;;;;;13.40;93.38;68264.63;5051713;28;20888;-82
2022/07/27 00:43:27;;;;;;;6.45;3.70;;;;;;;13.37;93.65;68258.53;5034071;28;20338;-82
2022/07/27 00:45:52;;;;;;;8.85;3.75;;;;;;;13.33;93.82;68254.56;5051535;28;20041;-81
2022/07/27 00:48:18;;;;;;;6.30;3.42;;;;;;;13.36;93.61;68260.06;5054648;28;20063;-81
2022/07/27 00:50:45;;;;;;;6.60;3.63;;;;;;;13.25;94.20;68245.44;5052739;28;20049;-82
2022/07/27 00:53:11;;;;;;;5.70;3.60;;;;;;;;;;5048755;28;20080;-81
2022/07/27 00:55:38;;;;;;;6.65;3.35;;;;;;;13.30;92.96;68251.16;5051274;28;20033;-79
2022/07/27 00:58:07;;;;;;;6.60;3.50;;;;;;;13.32;93.17;68256.06;5048560;28;20051;-80
2022/07/27 01:00:33;;;;;;;;;;;;;;;13.26;93.94;68246.59;5052037;28;20048;-78
2022/07/27 01:02:58;;;;;;;5.20;3.35;;;;;;;13.25;93.85;68240.69;5049649;28;19917;-80
2022/07/27 01:05:23;;;;;;;7.60;3.47;;;;;;;;;;5048501;28;20091;-79
2022/07/27 01:07:49;;;;;;;5.28;3.22;;;;;;;13.21;94.78;68244.13;5045586;28;20056;-81
2022/07/27 01:10:16;;;;;;;6.90;3.70;;;;;;;13.19;95.30;68239.19;5052867;28;20105;-82
2022/07/27 01:12:43;;;;;;;6.43;3.42;;;;;;;13.19;95.03;68241.84;5049716;28;20037;-81
2022/07/27 01:15:09;;;;;;;6.88;3.65;;;;;;;13.21;94.87;68244.13;5047990;28;20488;-81
2022/07/27 01:17:34;;;;;;;7.13;3.10;;;;;;;13.18;94.83;68238.06;5047461;28;20037;-81
2022/07/27 01:20:00;;;;;;;4.35;3.10;;;;;;;13.24;95.41;68244.88;5050493;28;20167;-81
2022/07/27 01:22:25;;;;;;;7.45;3.60;;;;;;;13.24;95.26;68244.88;5049652;28;20036;-81
2022/07/27 01:24:51;;;;;;;8.45;3.70;;;;;;;13.21;94.97;68241.47;5050483;28;20107;-81
2022/07/27 01:27:16;;;;;;;6.40;3.75;;;;;;;13.20;94.87;68240.31;5049527;28;20047;-82
2022/07/27 01:29:42;;;;;;;8.30;3.40;;;;;;;13.18;95.04;68238.06;5036968;28;20068;-81
2022/07/27 01:32:07;;;;;;;5.75;3.63;;;;;;;13.17;94.85;68239.56;5049910;28;20163;-81
2022/07/27 01:34:33;;;;;;;7.32;3.45;;;;;;;13.18;94.68;68238.06;5051607;28;20056;-81
2022/07/27 01:37:00;;;;;;;9.57;3.80;;;;;;;13.14;95.06;68233.50;5030343;28;20403;-81
2022/07/27 01:39:26;;;;;;;8.10;4.40;;;;;;;13.10;95.13;68229.50;5051117;28;20107;-81
2022/07/27 01:41:52;;;;;;;9.23;3.63;;;;;;;13.09;95.63;68230.50;5030604;28;20059;-81
2022/07/27 01:44:17;;;;;;;7.00;3.75;;;;;;;13.06;95.63;68227.06;5050647;28;20099;-80
2022/07/27 01:46:42;;;;;;;7.25;3.50;;;;;;;13.02;95.43;68219.84;5049599;28;20512;-83
2022/07/27 01:49:08;;;;;;;7.22;4.10;;;;;;;12.96;96.38;68207.69;5050139;28;20576;-82
2022/07/27 01:51:33;;;;;;;5.20;3.40;;;;;;;12.95;96.93;68212.47;5049489;28;20124;-81
2022/07/27 01:53:59;;;;;;;7.22;3.53;;;;;;;12.98;96.19;68217.97;5045176;28;20140;-82
2022/07/27 01:56:25;;;;;;;7.68;4.20;;;;;;;12.92;96.07;68209.06;5063396;28;20060;-81
2022/07/27 01:58:51;;;;;;;6.25;3.63;;;;;;;12.94;96.47;68210.75;5053251;28;20581;-81
2022/07/27 02:01:16;;;;;;;7.57;3.83;;;;;;;12.95;96.71;68211.91;5049422;28;20324;-80
2022/07/27 02:03:41;;;;;;;5.97;3.83;;;;;;;;;;5052111;28;20040;-80
2022/07/27 02:06:07;;;;;;;11.70;4.70;;;;;;;;;;5069866;28;20067;-82
2022/07/27 02:08:33;;;;;;;7.82;4.28;;;;;;;12.87;96.45;68209.28;5056503;28;20045;-80
2022/07/27 02:13:46;;;;;;;8.35;4.32;;;;;;;;;;5051332;28;20048;-81
2022/07/27 02:16:11;;;;;;;8.43;4.70;;;;;;;12.72;97.50;68189.56;5054190;28;20397;-79
2022/07/27 02:18:37;;;;;;;8.13;4.22;;;;;;;12.74;97.36;68189.13;5053083;28;20037;-80
2022/07/27 02:21:04;;;;;;;6.60;4.00;;;;;;;12.72;97.87;68191.66;5051973;28;20051;-80
2022/07/27 02:23:30;;;;;;;9.88;4.22;;;;;;;;;;5052861;28;20104;-80
2022/07/27 02:25:56;;;;;;;7.18;4.25;;;;;;;12.62;98.52;68175.50;5053268;28;20052;-81
2022/07/27 02:28:21;;;;;;;7.13;4.28;;;;;;;;;;5051405;28;20044;-80
2022/07/27 02:30:47;;;;;;;8.13;4.28;;;;;;;12.63;98.78;68176.66;5052222;28;20059;-81
2022/07/27 02:33:12;;;;;;;7.68;4.60;;;;;;;12.59;98.68;68172.66;5052444;28;20048;-82
2022/07/27 02:35:38;;;;;;;7.32;4.53;;;;;;;;;;5048003;28;20128;-79
2022/07/27 02:38:03;;;;;;;8.52;4.38;;;;;;;;;;5051676;28;20147;-79
2022/07/27 02:40:29;;;;;;;8.73;5.22;;;;;;;12.64;98.72;68172.44;5047094;28;20196;-80
2022/07/27 02:42:54;;;;;;;8.77;5.07;;;;;;;12.63;98.37;68177.22;5050788;28;20041;-80
2022/07/27 02:45:19;;;;;;;9.73;5.47;;;;;;;;;;5051938;28;20099;-80
2022/07/27 02:47:45;;;;;;;8.82;5.40;;;;;;;;;;5051326;28;20057;-80
2022/07/27 02:50:11;;;;;;;7.75;4.75;;;;;;;12.59;98.45;68172.66;5052912;28;20412;-80
2022/07/27 02:52:37;;;;;;;6.65;4.68;;;;;;;12.58;98.03;68171.53;5033770;28;20037;-80
2022/07/27 02:55:03;;;;;;;8.40;5.18;;;;;;;12.54;98.04;68166.41;5052729;28;20045;-80
2022/07/27 02:57:29;;;;;;;8.18;4.63;;;;;;;12.48;98.79;68162.25;5052693;28;20045;-80
2022/07/27 02:59:54;;;;;;;9.45;5.32;;;;;;;12.50;98.78;68162.44;5052146;28;20364;-80
2022/07/27 03:02:20;;;;;;;8.52;5.30;;;;;;;12.44;99.13;68157.72;5051560;28;20400;-80
2022/07/27 03:04:45;;;;;;;7.30;4.40;;;;;;;12.46;99.68;68157.31;5048418;28;20045;-83
2022/07/27 03:07:11;;;;;;;7.30;4.72;;;;;;;12.46;99.93;68157.31;5051997;28;20092;-80
2022/07/27 03:09:36;;;;;;;10.85;5.50;;;;;;;12.43;99.84;68157.16;5034672;28;20037;-81
2022/07/27 03:12:02;;;;;;;7.47;5.05;;;;;;;12.37;99.73;68148.25;5047557;28;20048;-82
2022/07/27 03:14:27;;;;;;;8.57;5.13;;;;;;;;;;5051304;28;20097;-81
2022/07/27 03:16:52;;;;;;;10.10;4.70;;;;;;;;;;5051875;28;20334;-81
2022/07/27 03:19:18;;;;;;;9.45;5.03;;;;;;;12.34;99.20;68144.25;5051651;28;20051;-83
2022/07/27 03:21:43;;;;;;;10.35;5.55;;;;;;;12.33;99.42;68146.34;5051547;28;20431;-81
2022/07/27 03:24:09;;;;;;;9.68;5.50;;;;;;;;;;5050801;28;20048;-81
2022/07/27 03:26:34;;;;;;;9.27;6.03;;;;;;;12.32;99.79;68142.56;5052521;28;20043;-81
2022/07/27 03:28:59;;;;;;;11.30;5.22;;;;;;;12.23;99.92;68132.31;5050694;28;20100;-81
2022/07/27 03:31:25;;;;;;;11.88;5.50;;;;;;;12.15;100.00;68123.78;5052061;28;20063;-80
2022/07/27 03:33:50;;;;;;;8.60;4.95;;;;;;;12.11;100.00;68118.69;5053835;28;20494;-81
2022/07/27 03:36:15;;;;;;;10.13;5.43;;;;;;;12.10;100.00;68118.13;5049840;28;20048;-80
2022/07/27 03:38:41;;;;;;;9.48;6.05;;;;;;;12.06;100.00;68113.00;5032505;28;20063;-81
2022/07/27 03:41:06;;;;;;;10.38;5.47;;;;;;;12.13;100.00;68121.53;5047541;28;20059;-80
2022/07/27 03:43:32;;;;;;;9.20;5.90;;;;;;;12.11;100.00;68113.34;5050414;28;20045;-79
2022/07/27 03:45:57;;;;;;;9.43;5.38;;;;;;;;;;5048391;28;20037;-79
2022/07/27 03:48:23;;;;;;;9.30;5.18;;;;;;;12.07;100.00;68116.81;5049519;28;20051;-79
2022/07/27 03:50:48;;;;;;;8.38;5.40;;;;;;;12.02;100.00;68113.78;5044349;28;20045;-80
2022/07/27 03:53:14;;;;;;;9.40;5.90;;;;;;;11.96;100.00;68102.78;5048304;28;20476;-80
2022/07/27 03:55:39;;;;;;;8.30;5.70;;;;;;;11.93;100.00;68101.47;5044571;28;20115;-81
2022/07/27 03:58:04;;;;;;;9.35;6.18;;;;;;;11.94;100.00;68100.50;5044087;28;20051;-80
2022/07/27 04:00:30;;;;;;;10.00;5.95;;;;;;;;;;5045398;28;20040;-80
2022/07/27 04:02:55;;;;;;;10.63;6.25;;;;;;;11.88;100.00;68085.69;5044092;28;20461;-79
2022/07/27 04:05:20;;;;;;;8.70;6.07;;;;;;;11.84;100.00;68091.78;5047375;28;20029;-79
2022/07/27 04:07:46;;;;;;;9.35;5.85;;;;;;;11.83;100.00;68088.00;5034201;28;20036;-80
2022/07/27 04:10:11;;;;;;;9.63;5.40;;;;;;;11.80;100.00;68084.03;5047174;28;20518;-79
2022/07/27 04:12:37;;;;;;;9.88;6.05;;;;;;;;;;5047434;28;20043;-81
2022/07/27 04:15:04;;;;;;;10.82;6.07;;;;;;;11.75;100.00;68079.47;5048139;28;20041;-81
2022/07/27 04:17:30;;;;;;;9.63;5.78;;;;;;;11.75;100.00;68078.91;5047386;28;20128;-79
2022/07/27 04:19:55;;;;;;;9.45;6.13;;;;;;;11.79;100.00;68085.53;5045130;28;20183;-79
2022/07/27 04:22:20;;;;;;;8.63;6.68;;;;;;;11.81;100.00;68085.72;5047420;28;20048;-82
2022/07/27 04:24:46;;;;;;;11.23;6.90;;;;;;;11.86;100.00;68091.41;5048714;28;20063;-81
2022/07/27 04:27:12;;;;;;;10.95;6.30;;;;;;;;;;5043957;28;20043;-81
2022/07/27 04:29:37;;;;;;;11.63;6.78;;;;;;;;;;5048471;28;20091;-81
2022/07/27 04:32:02;;;;;;;10.18;6.13;;;;;;;11.93;100.00;68094.03;5046347;28;20060;-79
2022/07/27 04:34:28;;;;;;;10.77;6.50;;;;;;;12.04;100.00;68113.41;5057808;28;20075;-79
2022/07/27 04:36:53;;;;;;;9.15;6.10;;;;;;;12.04;100.00;68110.72;5061173;28;20377;-79
2022/07/27 04:39:19;;;;;;;10.85;5.85;;;;;;;12.09;100.00;68116.97;5046264;28;20037;-80
2022/07/27 04:41:44;;;;;;;11.00;6.07;;;;;;;12.12;100.00;68115.06;5044796;28;20396;-79
2022/07/27 04:44:10;;;;;;;10.70;5.80;;;;;;;12.17;100.00;68128.19;5046813;28;20102;-80
2022/07/27 04:46:35;;;;;;;9.15;6.30;;;;;;;12.17;100.00;68126.06;5044245;28;20514;-79
2022/07/27 04:49:01;;;;;;;9.82;6.00;;;;;;;12.31;100.00;68136.06;5042131;28;20041;-80
2022/07/27 04:51:26;;;;;;;9.32;6.07;;;;;;;12.36;100.00;68151.88;5048240;28;20049;-80
2022/07/27 04:53:52;;;;;;;8.25;5.03;;;;;;;12.34;100.00;68147.50;5046495;28;20045;-80
2022/07/27 04:56:17;;;;;;;13.32;6.53;;;;;;;12.35;100.00;68145.41;5046120;28;20048;-81
2022/07/27 04:58:42;;;;;;;9.40;5.80;;;;;;;12.45;100.00;68156.75;5029696;28;20136;-80
2022/07/27 05:01:11;;;;;;;12.02;5.57;;;;;;;12.47;100.00;68159.03;5042957;28;20444;-79
2022/07/27 05:03:37;;;;;;;10.32;5.93;;;;;;;;;;5028500;28;20063;-80
2022/07/27 05:06:02;;;;;;;9.73;5.55;;;;;;;;;;5049304;28;20056;-80
2022/07/27 05:08:28;;;;;;;11.23;5.63;;;;;;;12.67;100.00;68180.63;5048697;28;20399;-80
2022/07/27 05:10:53;;;;;;;8.60;5.78;;;;;;;;;;5055276;28;20045;-81
2022/07/27 05:13:18;;;;;;;8.18;5.90;;;;;;;12.79;100.00;68194.81;5054865;28;20037;-79
2022/07/27 05:15:44;;;;;;;9.75;5.53;;;;;;;12.92;100.00;68209.06;5046071;28;20449;-80
2022/07/27 05:18:09;;;;;;;11.15;6.05;;;;;;;12.94;100.00;68213.41;5037213;28;20044;-81
2022/07/27 05:20:35;;;;;;;8.77;4.97;;;;;;;12.92;100.00;68209.06;5044443;28;20516;-81
2022/07/27 05:23:00;;;;;;;8.77;5.70;;;;;;;12.93;100.00;68212.28;5045543;28;20045;-80
2022/07/27 05:25:25;;;;;;;10.63;5.88;;;;;;;13.02;100.00;68220.41;5045741;28;20041;-82
2022/07/27 05:27:51;;;;;;;11.25;5.70;;;;;;;12.98;100.00;68215.31;5041341;28;20047;-80
2022/07/27 05:30:18;;;;;;;9.77;6.47;;;;;;;13.09;100.00;68233.16;5047394;28;20048;-79
2022/07/27 05:32:44;;;;;;;8.18;5.75;;;;;;;13.03;100.00;68220.97;5039291;28;20518;-79
2022/07/27 05:35:09;;;;;;;9.93;6.00;;;;;;;13.10;100.00;68220.94;5025474;28;20045;-80
2022/07/27 05:37:34;;;;;;;8.40;5.55;;;;;;;13.14;100.00;68233.50;5041174;28;20565;-81
2022/07/27 05:40:00;;;;;;;10.73;5.68;;;;;;;13.18;100.00;68237.47;5041498;28;20037;-80
2022/07/27 05:42:25;;;;;;;6.15;4.95;;;;;;;;;;5046871;28;20503;-80
2022/07/27 05:44:54;;;;;;;8.20;5.35;;;;;;;13.12;99.96;68230.63;5041939;28;20043;-80
2022/07/27 05:47:20;;;;;;;6.60;4.80;;;;;;;13.12;100.00;68230.63;5032431;28;20073;-80
2022/07/27 05:49:45;;;;;;;10.38;6.03;;;;;;;;;;5051288;28;20065;-82
2022/07/27 05:52:10;;;;;;;8.93;5.43;;;;;;;;;;5051063;28;20116;-79
2022/07/27 05:54:35;;;;;;;8.70;5.22;;;;;;;13.42;99.21;68264.22;5052524;28;20045;-80
2022/07/27 05:57:01;;;;;;;9.13;5.07;;;;;;;13.53;99.09;68276.75;5045942;28;20041;-82
2022/07/27 05:59:27;;;;;;;7.78;4.30;;;;;;;13.57;98.60;68280.72;5048252;28;20036;-80
2022/07/27 06:01:52;;;;;;;7.70;4.47;;;;;;;13.60;98.68;68284.69;5049769;28;20028;-80
2022/07/27 06:04:17;;;;;;;6.82;4.13;;;;;;;;;;5054310;28;20502;-79
2022/07/27 06:09:26;;;;;;;8.32;3.53;;;;;;;13.96;96.37;68319.75;5033342;28;20174;-78
2022/07/27 06:11:52;;;;;;;5.18;3.25;;;;;;;;;;5044350;28;20518;-79
2022/07/27 06:14:18;;;;;;;7.25;3.15;;;;;;;14.25;94.38;68356.97;5044863;28;20119;-80
2022/07/27 06:16:43;;;;;;;5.82;2.95;;;;;;;14.39;93.89;68372.34;5051113;28;20044;-84
2022/07/27 06:19:09;;;;;;;9.15;3.20;;;;;;;;;;5047777;28;20045;-80
2022/07/27 06:21:34;;;;;;;6.45;3.10;;;;;;;14.75;90.76;68412.19;5049925;28;20444;-82
2022/07/27 06:23:59;;;;;;;7.50;3.00;;;;;;;14.78;90.96;68415.59;5046422;28;20091;-82
2022/07/27 06:26:25;;;;;;;5.22;2.67;;;;;;;14.88;90.54;68422.22;5040218;28;20111;-79
2022/07/27 06:28:51;;;;;;;7.18;3.08;;;;;;;14.94;89.32;68433.84;5027192;28;20078;-82
2022/07/27 06:31:16;;;;;;;4.97;2.20;;;;;;;;;;5045256;28;20044;-80
2022/07/27 06:33:42;;;;;;;4.43;2.30;;;;;;;15.04;87.47;68445.22;5049531;28;20037;-79
2022/07/27 06:36:07;;;;;;;5.65;2.78;;;;;;;15.15;86.53;68456.59;5042781;28;20033;-79
2022/07/27 06:38:33;;;;;;;5.30;2.60;;;;;;;15.24;85.40;68469.53;5047908;28;20403;-80
2022/07/27 06:40:59;;;;;;;5.47;2.33;;;;;;;15.26;86.00;68469.13;5049573;28;20040;-82
2022/07/27 06:43:26;;;;;;;6.97;2.92;;;;;;;;;;5054273;28;20040;-83
2022/07/27 06:45:53;;;;;;;5.93;2.45;;;;;;;15.34;85.12;68481.50;5048713;28;20045;-79
2022/07/27 06:48:20;;;;;;;5.13;2.00;;;;;;;;;;5035434;28;20048;-80
2022/07/27 06:50:45;;;;;;;5.10;2.15;;;;;;;15.37;82.66;68481.66;5045831;28;20111;-80
2022/07/27 06:53:11;;;;;;;4.32;1.83;;;;;;;;;;5049734;28;20575;-80
2022/07/27 06:55:36;;;;;;;6.37;1.83;;;;;;;15.45;80.47;68484.84;5050555;28;20084;-81
2022/07/27 06:58:02;;;;;;;6.85;2.00;;;;;;;15.62;80.53;68509.56;5047400;28;20279;-82
2022/07/27 07:00:27;;;;;;;5.32;1.65;;;;;;;15.58;80.08;68505.59;5061140;28;20052;-80
2022/07/27 07:03:00;;;;;;;4.63;1.70;;;;;;;;;;5049873;28;20040;-79
2022/07/27 07:05:26;;;;;;;7.15;1.65;;;;;;;15.66;78.39;68516.25;5051235;28;20095;-80
2022/07/27 07:07:51;;;;;;;4.68;1.75;;;;;;;;;;5049761;28;20048;-80
2022/07/27 07:10:17;;;;;;;5.82;1.60;;;;;;;15.74;77.99;68515.22;5047366;28;20296;-80
2022/07/27 07:12:42;;;;;;;3.17;1.15;;;;;;;15.81;76.97;68530.13;5028642;28;20045;-81
2022/07/27 07:15:09;;;;;;;6.20;1.77;;;;;;;15.89;76.32;68539.81;5047450;28;20401;-80
2022/07/27 07:17:35;;;;;;;6.47;1.63;;;;;;;;;;5039442;28;20491;-80
2022/07/27 07:20:01;;;;;;;5.20;1.10;;;;;;;15.93;76.08;68538.41;5040704;28;20538;-81
2022/07/27 07:22:27;;;;;;;5.47;1.38;;;;;;;16.26;78.63;68580.84;5040227;28;20061;-80
2022/07/27 07:24:52;;;;;;;4.45;1.30;;;;;;;16.31;76.02;68581.16;5044506;28;20067;-80
2022/07/27 07:27:22;;;;;;;3.45;1.10;;;;;;;;;;5046622;28;20045;-81
2022/07/27 07:29:50;;;;;;;5.25;1.27;;;;;;;16.49;75.31;68606.50;5046837;28;20072;-80
2022/07/27 07:32:15;;;;;;;3.58;1.10;;;;;;;;;;5040521;28;20524;-81
2022/07/27 07:34:41;;;;;;;6.80;1.23;;;;;;;16.67;72.91;68629.69;5061917;28;20044;-80
2022/07/27 07:37:07;;;;;;;4.18;1.15;;;;;;;;;;5061192;28;20230;-80
2022/07/27 07:39:32;;;;;;;5.07;1.25;;;;;;;16.72;71.48;68632.16;5047369;28;20041;-82
2022/07/27 07:41:58;;;;;;;4.72;1.27;;;;;;;16.79;71.89;68631.50;5032192;28;20489;-81
2022/07/27 07:44:23;;;;;;;4.93;1.20;;;;;;;16.95;71.20;68651.88;5050555;28;20041;-80
2022/07/27 07:46:48;;;;;;;5.40;1.38;;;;;;;16.96;69.51;68650.34;5040578;28;21159;-81
2022/07/27 07:49:14;;;;;;;8.80;1.63;;;;;;;;;;5051592;28;20043;-82
2022/07/27 07:51:39;;;;;;;3.55;1.00;;;;;;;17.16;67.68;68675.81;5047367;28;20041;-80
2022/07/27 07:54:04;;;;;;;7.35;1.52;;;;;;;17.13;68.17;68677.78;5050466;28;20036;-80
2022/07/27 07:56:30;;;;;;;5.63;0.98;;;;;;;17.09;67.70;68673.22;5041410;28;20560;-80
2022/07/27 07:58:55;;;;;;;5.00;1.05;;;;;;;17.20;67.13;68685.19;5047485;28;20209;-80
2022/07/27 08:01:20;;;;;;;6.20;1.20;;;;;;;;;;5036404;28;20626;-80
2022/07/27 08:03:46;;;;;;;2.38;0.80;;;;;;;17.37;66.46;68699.78;5038507;28;20488;-80
2022/07/27 08:06:11;;;;;;;3.17;0.98;;;;;;;17.33;66.38;68700.59;5047208;28;20084;-81
2022/07/27 08:08:37;;;;;;;3.45;1.23;;;;;;;17.24;63.61;68689.78;5048624;28;20044;-81
2022/07/27 08:11:02;;;;;;;4.88;1.08;;;;;;;17.26;63.47;68686.66;5035018;28;20088;-81
2022/07/27 08:13:27;;;;;;;2.40;0.95;;;;;;;17.29;62.52;68696.03;5062930;28;20703;-79
2022/07/27 08:15:53;;;;;;;5.38;1.05;;;;;;;17.12;63.54;68671.28;5057577;28;20049;-79
2022/07/27 08:18:19;;;;;;;2.60;0.93;;;;;;;17.28;64.47;68694.88;5060015;28;20039;-80
2022/07/27 08:20:44;;;;;;;4.15;1.10;;;;;;;;;;5058910;28;20041;-79
2022/07/27 08:23:11;;;;;;;4.22;1.08;;;;;;;;;;5049922;28;20045;-80
2022/07/27 08:25:37;;;;;;;6.68;0.88;;;;;;;17.48;62.60;68711.75;5045203;28;20037;-80
2022/07/27 08:28:03;;;;;;;3.70;0.90;;;;;;;17.54;60.51;68718.03;5058103;28;20466;-79
2022/07/27 08:30:28;;;;;;;4.43;0.73;;;;;;;17.70;59.75;68736.31;5059215;28;20038;-78
2022/07/27 08:32:57;;;;;;;4.10;0.95;;;;;;;;;;5061576;28;20049;-80
2022/07/27 08:35:22;;;;;;;4.32;1.10;;;;;;;18.15;60.46;68785.97;5065957;28;20049;-79
2022/07/27 08:37:48;;;;;;;2.95;1.15;;;;;;;18.16;58.82;68793.06;5062422;28;20041;-80
2022/07/27 08:40:14;;;;;;;3.35;1.13;;;;;;;;;;5056304;28;29678;-79
2022/07/27 08:42:41;;;;;;;3.35;0.73;;;;;;;18.35;58.53;68805.53;5055954;28;20044;-79
2022/07/27 08:45:10;;;;;;;3.03;0.95;;;;;;;18.39;58.43;68813.38;5057913;28;20033;-79
2022/07/27 08:47:38;;;;;;;3.55;1.20;;;;;;;18.17;58.85;68788.81;5062764;28;20048;-80
2022/07/27 08:50:04;;;;;;;5.85;1.02;;;;;;;18.09;59.69;68784.50;5059411;28;20056;-79
2022/07/27 08:52:30;;;;;;;5.72;1.20;;;;;;;18.16;59.78;68787.69;5065435;28;20120;-79
2022/07/27 08:54:55;;;;;;;4.40;1.02;;;;;;;18.13;59.91;68789.09;5056216;28;20336;-80
2022/07/27 08:57:21;;;;;;;6.47;1.60;;;;;;;17.92;63.21;68760.84;5059015;28;20053;-79
2022/07/27 08:59:46;;;;;;;3.75;1.00;;;;;;;17.83;63.14;68750.56;5058449;28;20072;-79
2022/07/27 09:02:14;;;;;;;5.13;1.27;;;;;;;17.74;63.28;68738.16;5058871;28;20064;-79
2022/07/27 09:04:40;;;;;;;4.40;1.05;;;;;;;17.73;63.52;68745.09;5060129;28;20041;-79
2022/07/27 09:07:05;;;;;;;3.88;1.45;;;;;;;17.76;64.31;68739.88;5057911;28;20110;-79
2022/07/27 09:09:42;;;;;;;5.20;1.20;;;;;;;;;;5061461;28;20063;-80
2022/07/27 09:12:09;;;;;;;4.75;1.33;;;;;;;17.86;63.97;68753.44;5037616;28;20056;-80
2022/07/27 09:14:36;;;;;;;7.78;1.65;;;;;;;17.60;64.89;68730.25;5061540;28;20045;-79
2022/07/27 09:17:21;;;;;;;2.65;1.00;;;;;;;;;;5059292;28;20040;-79
2022/07/27 09:20:02;;;;;;;5.05;1.48;;;;;;;17.62;64.89;68727.16;5053786;28;20530;-79
2022/07/27 09:22:49;;;;;;;4.55;1.20;;;;;;;;;;5050493;28;20059;-79
2022/07/27 09:25:17;;;;;;;3.60;0.98;;;;;;;17.60;63.68;68725.44;5065750;28;20285;-80
2022/07/27 09:27:44;;;;;;;2.55;1.15;;;;;;;17.74;64.12;68740.28;5062024;28;20033;-79
2022/07/27 09:30:13;;;;;;;3.58;0.80;;;;;;;18.01;61.47;68767.84;5055991;28;20827;-79
2022/07/27 09:33:00;;;;;;;4.47;1.08;;;;;;;18.23;61.10;68801.06;5056560;28;20045;-80
2022/07/27 09:35:29;;;;;;;3.17;1.08;;;;;;;18.65;60.71;68839.22;5030443;28;20045;-80
2022/07/27 09:38:17;;;;;;;3.47;0.88;;;;;;;;;;5045123;28;20083;-80
2022/07/27 09:40:44;;;;;;;3.72;1.30;;;;;;;18.45;60.25;68819.66;5025536;28;20507;-80
2022/07/27 09:43:12;;;;;;;5.32;1.25;;;;;;;18.27;60.75;68799.69;5050030;28;20356;-79
2022/07/27 09:45:42;;;;;;;3.95;1.02;;;;;;;18.21;59.75;68790.13;5049268;28;20565;-80
2022/07/27 09:48:16;;;;;;;6.30;1.10;;;;;;;18.11;59.39;68781.41;5045645;28;20412;-80
2022/07/27 09:50:58;;;;;;;5.68;0.90;;;;;;;18.09;60.47;68779.13;5048208;28;20037;-79
2022/07/27 09:53:26;;;;;;;4.45;0.80;;;;;;;18.24;57.97;68796.81;5018482;28;20076;-80
2022/07/27 09:55:56;;;;;;;3.58;1.15;;;;;;;18.11;60.32;68781.97;5044188;28;20120;-81
2022/07/27 09:58:47;;;;;;;4.93;1.10;;;;;;;18.08;60.96;68777.97;5046472;28;20119;-80
2022/07/27 10:01:22;;;;;;;2.88;1.00;;;;;;;;;;5047481;28;20456;-80
2022/07/27 10:03:51;;;;;;;3.38;1.10;;;;;;;17.96;61.22;68772.94;5032996;28;20423;-81
2022/07/27 10:06:17;;;;;;;3.50;1.02;;;;;;;17.90;61.59;68758.00;5047790;28;20063;-80
2022/07/27 10:08:44;;;;;;;2.53;1.00;;;;;;;;;;5063152;28;20090;-80
2022/07/27 10:11:10;;;;;;;5.75;1.20;;;;;;;17.92;60.79;68760.28;5051000;28;20048;-79
2022/07/27 10:13:36;;;;;;;3.42;1.10;;;;;;;17.81;61.14;68743.50;5048993;28;20041;-80
2022/07/27 10:16:03;;;;;;;4.80;1.25;;;;;;;;;;5045422;28;20048;-80
2022/07/27 10:18:51;;;;;;;6.13;1.40;;;;;;;17.89;61.63;68754.16;5048296;28;20045;-80
2022/07/27 10:21:17;;;;;;;4.07;1.40;;;;;;;17.84;60.93;68751.16;5040528;28;20077;-80
2022/07/27 10:24:03;;;;;;;4.15;1.20;;;;;;;;;;5044650;28;20102;-81
2022/07/27 10:26:37;;;;;;;4.13;1.30;;;;;;;18.03;62.06;68772.84;5017930;28;20068;-80
2022/07/27 10:29:06;;;;;;;4.82;1.60;;;;;;;18.08;59.91;68783.38;5048633;28;20033;-80
2022/07/27 10:31:36;;;;;;;6.22;1.20;;;;;;;18.25;61.38;68797.94;5046189;28;20523;-80
2022/07/27 10:34:05;;;;;;;2.67;1.02;;;;;;;18.24;60.28;68796.22;5027442;28;20496;-79
2022/07/27 10:36:30;;;;;;;3.47;1.20;;;;;;;18.22;60.05;68799.91;5037673;28;20124;-80
2022/07/27 10:38:57;;;;;;;4.85;1.10;;;;;;;;;;5050635;28;20494;-80
2022/07/27 10:41:22;;;;;;;2.70;0.85;;;;;;;;;;5048830;28;20512;-81
2022/07/27 10:43:50;;;;;;;6.53;1.33;;;;;;;18.40;57.47;68813.94;5050490;28;20130;-80
2022/07/27 10:46:19;;;;;;;2.60;0.80;;;;;;;;;;5051044;28;20283;-80
2022/07/27 10:48:44;;;;;;;4.35;0.98;;;;;;;19.16;54.55;68899.63;5051434;28;20118;-80
2022/07/27 10:51:11;;;;;;;4.00;1.00;;;;;;;19.54;54.84;68941.91;5026528;28;20045;-80
2022/07/27 10:53:40;;;;;;;3.67;1.13;;;;;;;19.45;53.13;68936.44;5050002;28;20048;-81
2022/07/27 10:56:06;;;;;;;4.50;1.40;;;;;;;;;;5051169;28;20041;-81
2022/07/27 10:58:31;;;;;;;5.80;1.20;;;;;;;19.05;53.73;68886.50;5045094;28;20038;-80
2022/07/27 11:01:01;;;;;;;2.92;0.95;;;;;;;18.79;55.77;68857.94;5056911;28;20061;-80
2022/07/27 11:03:29;;;;;;;4.25;1.10;;;;;;;;;;5052174;28;20124;-80
2022/07/27 11:06:00;;;;;;;4.93;1.13;;;;;;;18.76;55.87;68853.91;5053809;28;20041;-80
2022/07/27 11:08:28;;;;;;;2.95;0.98;;;;;;;18.63;54.68;68839.63;5049827;28;20188;-81
2022/07/27 11:10:54;;;;;;;3.03;0.90;;;;;;;18.74;54.14;68851.66;5051756;28;20545;-78
2022/07/27 11:13:22;;;;;;;3.10;0.75;;;;;;;18.79;54.87;68857.34;5054532;28;20041;-80
2022/07/27 11:16:01;;;;;;;3.47;0.70;;;;;;;;;;5032778;28;20037;-81
2022/07/27 11:18:31;;;;;;;4.55;0.95;;;;;;;19.11;54.80;68893.91;5028546;28;20045;-80
2022/07/27 11:21:20;;;;;;;4.63;0.82;;;;;;;19.64;51.14;68952.19;5050083;28;20044;-81
2022/07/27 11:23:48;;;;;;;2.80;0.77;;;;;;;19.89;50.38;68980.22;5047305;28;20686;-79
2022/07/27 11:26:14;;;;;;;2.92;0.90;;;;;;;20.30;47.97;69021.09;5049953;28;20346;-81
2022/07/27 11:28:40;;;;;;;2.55;0.80;;;;;;;20.51;49.22;69049.94;5050269;28;20519;-80
2022/07/27 11:31:07;;;;;;;2.40;0.70;;;;;;;20.69;49.36;69069.97;5047940;28;20289;-80
2022/07/27 11:33:33;;;;;;;3.72;0.90;;;;;;;20.89;49.23;69090.16;5049242;28;20061;-80
2022/07/27 11:36:03;;;;;;;2.83;0.75;;;;;;;;;;5050252;28;20036;-80
2022/07/27 11:38:29;;;;;;;3.75;1.08;;;;;;;20.65;45.96;69065.41;5049851;28;20110;-80
2022/07/27 11:40:54;;;;;;;2.10;0.65;;;;;;;20.60;46.63;69056.97;5050650;28;20496;-81
2022/07/27 11:43:40;;;;;;;2.65;0.85;;;;;;;20.72;43.36;69073.41;5048268;28;20043;-79
2022/07/27 11:46:43;;;;;;;1.67;0.70;;;;;;;20.64;45.08;69061.56;5049928;28;20043;-80
2022/07/27 11:49:17;;;;;;;3.13;1.08;;;;;;;20.43;44.65;69041.38;5042874;28;20520;-81
2022/07/27 11:51:47;;;;;;;2.97;0.80;;;;;;;20.38;46.27;69035.06;5049464;28;20543;-79
2022/07/27 11:54:31;;;;;;;3.20;0.73;;;;;;;20.32;47.14;69023.38;5049895;28;20487;-79
2022/07/27 11:56:59;;;;;;;4.35;0.90;;;;;;;20.53;48.82;69051.69;5043661;28;20060;-80
2022/07/27 11:59:33;;;;;;;3.42;0.98;;;;;;;20.83;46.72;69086.00;5047265;28;20167;-80
2022/07/27 12:02:04;;;;;;;2.65;0.95;;;;;;;20.89;46.98;69092.84;5047193;28;20437;-78
2022/07/27 12:04:34;;;;;;;3.53;0.90;;;;;;;21.09;45.64;69111.88;5048097;28;20377;-79
2022/07/27 12:07:10;;;;;;;2.88;1.45;;;;;;;20.89;46.47;69086.88;5048491;28;20038;-80
2022/07/27 12:09:42;;;;;;;3.10;1.20;;;;;;;20.45;47.14;69043.63;5047552;28;20094;-80